Champion III — HO7207 — position and weather

sailwx.info

Track history (hours):
 
Tides and Currents Weather Stations Pressure Air Temp Water Temp Dewpoint Dewpoint Depression Visibility Wind Speed Wind Dir Waves Ship Positions

Champion III

Last reported at 2017-Dec-11 05:22 UTC. Time now 2017-Dec-13 01:18 UTC.
Position N 26°04' W 079°37'.

Length 54 m; draft 2.4 m.

Type: Cargo ship. MMSI: 351468000.

Date/timePositionNaut miles runAvg speedWind from/ knotsBaromVisibWave heightAir tempDewpointWater temp
2017-Dec-11 05:22N 26°04' W 079°37'3 6.9
2017-Dec-11 05:00N 26°05' W 079°39'3 6.6
2017-Dec-11 04:30N 26°07' W 079°42'4 7.2
2017-Dec-11 04:00N 26°09' W 079°46'3 6.8
2017-Dec-11 03:30N 26°11' W 079°49'3 6.2
2017-Dec-11 03:00N 26°09' W 079°52'3 6.8
2017-Dec-11 02:30N 26°08' W 079°56'4 7.3
2017-Dec-11 02:00N 26°06' W 079°59'4 7.5
2017-Dec-11 01:30N 26°05' W 080°03'3 6.5
2017-Dec-11 01:00N 26°04' W 080°07'1 1.0
2017-Dec-11 00:29N 26°04' W 080°07'0 0.0
2017-Dec-10 23:59N 26°04' W 080°07'0 0.0
2017-Dec-10 23:29N 26°04' W 080°07'0 0.0
2017-Dec-10 22:08N 26°04' W 080°07'0 0.0
2017-Dec-10 21:59N 26°04' W 080°07'0 0.0
2017-Dec-10 21:29N 26°04' W 080°07'0 0.0
2017-Dec-10 20:59N 26°04' W 080°07'0 0.0
2017-Dec-10 20:29N 26°04' W 080°07'0 0.0
2017-Dec-10 19:59N 26°04' W 080°07'0 0.0
2017-Dec-10 19:29N 26°04' W 080°07'0 0.0
2017-Dec-10 18:56N 26°04' W 080°07'0 0.0
2017-Dec-10 18:30N 26°04' W 080°07'0 0.4
2017-Dec-10 18:00N 26°04' W 080°07'3 5.9
2017-Dec-10 17:31N 26°06' W 080°04'2 3.8
2017-Dec-10 17:00N 26°07' W 080°03'4 7.1
2017-Dec-10 16:30N 26°09' W 079°60'4 8.3
2017-Dec-10 16:00N 26°11' W 079°56'4 7.2
2017-Dec-10 15:30N 26°13' W 079°52'3 6.5
2017-Dec-10 15:00N 26°15' W 079°49'3 6.0
2017-Dec-10 14:28N 26°16' W 079°46'  
2017-Dec-07 20:07N 26°16' W 079°33'1 9.0
2017-Dec-07 19:58N 26°16' W 079°34'4 9.0
2017-Dec-07 19:30N 26°14' W 079°38'5 9.2
2017-Dec-07 19:00N 26°13' W 079°43'5 9.2
2017-Dec-07 18:30N 26°11' W 079°48'5 9.2
2017-Dec-07 18:00N 26°10' W 079°53'5 9.1
2017-Dec-07 17:30N 26°08' W 079°58'5 9.0
2017-Dec-07 17:00N 26°07' W 080°02'4 8.1
2017-Dec-07 16:30N 26°06' W 080°07'2 3.2
2017-Dec-07 15:58N 26°04' W 080°07'0 0.0
2017-Dec-07 15:28N 26°04' W 080°07'0 0.0
2017-Dec-07 14:58N 26°04' W 080°07'0 0.0
2017-Dec-07 14:28N 26°04' W 080°07'0 0.0
2017-Dec-07 13:58N 26°04' W 080°07'0 0.0
2017-Dec-07 13:28N 26°04' W 080°07'0 0.0
2017-Dec-07 12:58N 26°04' W 080°07'2 3.5
2017-Dec-07 12:31N 26°06' W 080°07'4 8.8
2017-Dec-07 12:00N 26°06' W 080°02'4 8.5
2017-Dec-07 11:30N 26°07' W 079°57'4 8.0
2017-Dec-07 11:01N 26°08' W 079°53'4 8.0
2017-Dec-07 10:31N 26°09' W 079°49'4 8.0
2017-Dec-07 10:00N 26°10' W 079°44'4 8.1
2017-Dec-07 09:30N 26°11' W 079°40'4 7.9
2017-Dec-07 09:01N 26°12' W 079°36'  
2017-Dec-03 02:39N 26°22' W 079°45'1 8.8
2017-Dec-03 02:30N 26°21' W 079°47'4 8.9
2017-Dec-03 02:00N 26°18' W 079°50'5 9.1
2017-Dec-03 01:31N 26°15' W 079°53'4 8.8
2017-Dec-03 01:01N 26°12' W 079°57'4 8.7
2017-Dec-03 00:30N 26°09' W 080°01'4 8.3
2017-Dec-03 00:01N 26°06' W 080°04'3 5.8
2017-Dec-02 23:31N 26°04' W 080°07'0 0.9
2017-Dec-02 23:00N 26°04' W 080°07'0 0.0
2017-Dec-02 22:30N 26°04' W 080°07'0 0.0
2017-Dec-02 22:00N 26°04' W 080°07'0 0.0
2017-Dec-02 21:30N 26°04' W 080°07'0 0.0
2017-Dec-02 21:00N 26°04' W 080°07'0 0.0
2017-Dec-02 20:30N 26°04' W 080°07'0 0.0
2017-Dec-02 20:00N 26°04' W 080°07'0 0.0
2017-Dec-02 19:30N 26°04' W 080°07'0 0.0
2017-Dec-02 19:00N 26°04' W 080°07'1 2.4
2017-Dec-02 18:30N 26°05' W 080°07'2 4.1
2017-Dec-02 18:00N 26°06' W 080°05'3 6.8
2017-Dec-02 17:30N 26°04' W 080°02'1 2.3
2017-Dec-02 17:00N 26°04' W 080°01'2 4.2
2017-Dec-02 16:30N 26°04' W 079°58'4 7.5
2017-Dec-02 16:00N 26°02' W 079°55'4 8.1
2017-Dec-02 15:30N 26°01' W 079°50'4 7.9
2017-Dec-02 15:00N 25°60' W 079°46'  
Track history (hours):
 
Tides and Currents Weather Stations Pressure Air Temp Water Temp Dewpoint Dewpoint Depression Visibility Wind Speed Wind Dir Waves Ship Positions

Champion III

Last reported at 2017-Dec-11 05:22 UTC. Time now 2017-Dec-13 01:18 UTC.
Position N 26°04' W 079°37'.

Length 54 m; draft 2.4 m.

Type: Cargo ship. MMSI: 351468000.

Date/timePositionNaut miles runAvg speedWind from/ knotsBaromVisibWave heightAir tempDewpointWater temp
2017-Dec-11 05:22N 26°04' W 079°37'3 6.9
2017-Dec-11 05:00N 26°05' W 079°39'3 6.6
2017-Dec-11 04:30N 26°07' W 079°42'4 7.2
2017-Dec-11 04:00N 26°09' W 079°46'3 6.8
2017-Dec-11 03:30N 26°11' W 079°49'3 6.2
2017-Dec-11 03:00N 26°09' W 079°52'3 6.8
2017-Dec-11 02:30N 26°08' W 079°56'4 7.3
2017-Dec-11 02:00N 26°06' W 079°59'4 7.5
2017-Dec-11 01:30N 26°05' W 080°03'3 6.5
2017-Dec-11 01:00N 26°04' W 080°07'1 1.0
2017-Dec-11 00:29N 26°04' W 080°07'0 0.0
2017-Dec-10 23:59N 26°04' W 080°07'0 0.0
2017-Dec-10 23:29N 26°04' W 080°07'0 0.0
2017-Dec-10 22:08N 26°04' W 080°07'0 0.0
2017-Dec-10 21:59N 26°04' W 080°07'0 0.0
2017-Dec-10 21:29N 26°04' W 080°07'0 0.0
2017-Dec-10 20:59N 26°04' W 080°07'0 0.0
2017-Dec-10 20:29N 26°04' W 080°07'0 0.0
2017-Dec-10 19:59N 26°04' W 080°07'0 0.0
2017-Dec-10 19:29N 26°04' W 080°07'0 0.0
2017-Dec-10 18:56N 26°04' W 080°07'0 0.0
2017-Dec-10 18:30N 26°04' W 080°07'0 0.4
2017-Dec-10 18:00N 26°04' W 080°07'3 5.9
2017-Dec-10 17:31N 26°06' W 080°04'2 3.8
2017-Dec-10 17:00N 26°07' W 080°03'4 7.1
2017-Dec-10 16:30N 26°09' W 079°60'4 8.3
2017-Dec-10 16:00N 26°11' W 079°56'4 7.2
2017-Dec-10 15:30N 26°13' W 079°52'3 6.5
2017-Dec-10 15:00N 26°15' W 079°49'3 6.0
2017-Dec-10 14:28N 26°16' W 079°46'  
2017-Dec-07 20:07N 26°16' W 079°33'1 9.0
2017-Dec-07 19:58N 26°16' W 079°34'4 9.0
2017-Dec-07 19:30N 26°14' W 079°38'5 9.2
2017-Dec-07 19:00N 26°13' W 079°43'5 9.2
2017-Dec-07 18:30N 26°11' W 079°48'5 9.2
2017-Dec-07 18:00N 26°10' W 079°53'5 9.1
2017-Dec-07 17:30N 26°08' W 079°58'5 9.0
2017-Dec-07 17:00N 26°07' W 080°02'4 8.1
2017-Dec-07 16:30N 26°06' W 080°07'2 3.2
2017-Dec-07 15:58N 26°04' W 080°07'0 0.0
2017-Dec-07 15:28N 26°04' W 080°07'0 0.0
2017-Dec-07 14:58N 26°04' W 080°07'0 0.0
2017-Dec-07 14:28N 26°04' W 080°07'0 0.0
2017-Dec-07 13:58N 26°04' W 080°07'0 0.0
2017-Dec-07 13:28N 26°04' W 080°07'0 0.0
2017-Dec-07 12:58N 26°04' W 080°07'2 3.5
2017-Dec-07 12:31N 26°06' W 080°07'4 8.8
2017-Dec-07 12:00N 26°06' W 080°02'4 8.5
2017-Dec-07 11:30N 26°07' W 079°57'4 8.0
2017-Dec-07 11:01N 26°08' W 079°53'4 8.0
2017-Dec-07 10:31N 26°09' W 079°49'4 8.0
2017-Dec-07 10:00N 26°10' W 079°44'4 8.1
2017-Dec-07 09:30N 26°11' W 079°40'4 7.9
2017-Dec-07 09:01N 26°12' W 079°36'  
2017-Dec-03 02:39N 26°22' W 079°45'1 8.8
2017-Dec-03 02:30N 26°21' W 079°47'4 8.9
2017-Dec-03 02:00N 26°18' W 079°50'5 9.1
2017-Dec-03 01:31N 26°15' W 079°53'4 8.8
2017-Dec-03 01:01N 26°12' W 079°57'4 8.7
2017-Dec-03 00:30N 26°09' W 080°01'4 8.3
2017-Dec-03 00:01N 26°06' W 080°04'3 5.8
2017-Dec-02 23:31N 26°04' W 080°07'0 0.9
2017-Dec-02 23:00N 26°04' W 080°07'0 0.0
2017-Dec-02 22:30N 26°04' W 080°07'0 0.0
2017-Dec-02 22:00N 26°04' W 080°07'0 0.0
2017-Dec-02 21:30N 26°04' W 080°07'0 0.0
2017-Dec-02 21:00N 26°04' W 080°07'0 0.0
2017-Dec-02 20:30N 26°04' W 080°07'0 0.0
2017-Dec-02 20:00N 26°04' W 080°07'0 0.0
2017-Dec-02 19:30N 26°04' W 080°07'0 0.0
2017-Dec-02 19:00N 26°04' W 080°07'1 2.4
2017-Dec-02 18:30N 26°05' W 080°07'2 4.1
2017-Dec-02 18:00N 26°06' W 080°05'3 6.8
2017-Dec-02 17:30N 26°04' W 080°02'1 2.3
2017-Dec-02 17:00N 26°04' W 080°01'2 4.2
2017-Dec-02 16:30N 26°04' W 079°58'4 7.5
2017-Dec-02 16:00N 26°02' W 079°55'4 8.1
2017-Dec-02 15:30N 26°01' W 079°50'4 7.9
2017-Dec-02 15:00N 25°60' W 079°46'  

Dump ship's entire track history